createdAt,value
2023-05-14T00:04:22.483Z,87.05
2023-05-14T00:49:29.551Z,92.08
2023-05-14T01:08:46.660Z,91.95
2023-05-14T01:11:04.676Z,93.01
2023-05-14T01:13:34.424Z,92.63
2023-05-14T01:16:14.420Z,92.83
2023-05-14T01:19:08.410Z,93.39
2023-05-14T01:21:57.544Z,93.07
2023-05-14T01:24:33.321Z,93.65
2023-05-14T01:27:13.972Z,94.75
2023-05-14T01:29:21.765Z,94.58
2023-05-14T01:31:31.660Z,95.06
2023-05-14T01:33:32.175Z,95.91
2023-05-14T01:35:50.493Z,96.97
2023-05-14T01:38:10.433Z,97.17
2023-05-14T01:40:23.779Z,97.21
2023-05-14T01:42:36.611Z,96.66
2023-05-14T01:44:54.927Z,97.48
2023-05-14T01:47:38.244Z,96.99
2023-05-14T01:49:58.218Z,96.87
2023-05-14T01:52:48.472Z,97.59
2023-05-14T01:55:05.927Z,98.20
2023-05-14T01:57:00.954Z,98.42
2023-05-14T01:58:56.967Z,99.08
2023-05-14T02:00:51.997Z,99.62
2023-05-14T02:02:47.457Z,99.59
2023-05-14T02:04:42.508Z,99.98
2023-05-14T02:06:37.857Z,99.86
2023-05-14T02:08:32.948Z,99.38
2023-05-14T02:10:30.945Z,98.61
2023-05-14T02:12:26.404Z,98.70
2023-05-14T02:14:21.776Z,99.06
2023-05-14T02:16:16.870Z,99.18
2023-05-14T02:18:12.717Z,98.35
2023-05-14T02:20:10.371Z,99.37
2023-05-14T02:22:06.129Z,99.07
2023-05-14T02:24:01.144Z,98.88
2023-05-14T02:25:59.127Z,99.27
2023-05-14T02:27:54.270Z,99.37
2023-05-14T02:29:50.265Z,99.07
2023-05-14T02:31:45.325Z,99.55
2023-05-14T02:33:38.172Z,99.62
2023-05-14T02:35:33.222Z,99.76
2023-05-14T02:37:28.681Z,99.44
2023-05-14T02:39:23.688Z,100.00
2023-05-14T02:41:21.661Z,100.00
2023-05-14T02:43:16.668Z,100.00
2023-05-14T02:45:12.911Z,99.88
2023-05-14T02:47:08.970Z,100.00
2023-05-14T02:49:04.404Z,100.00
2023-05-14T02:50:59.491Z,100.00
2023-05-14T02:52:54.830Z,100.00
2023-05-14T02:54:49.810Z,100.00
2023-05-14T02:56:47.775Z,100.00
2023-05-14T02:58:42.789Z,100.00
2023-05-14T03:00:38.231Z,100.00
2023-05-14T03:02:33.710Z,100.00
2023-05-14T03:04:29.758Z,100.00
2023-05-14T03:06:24.788Z,100.00
2023-05-14T03:08:20.119Z,100.00
2023-05-14T03:10:15.126Z,100.00
2023-05-14T03:12:14.454Z,100.00
2023-05-14T03:14:09.777Z,100.00
2023-05-14T03:16:05.470Z,100.00
2023-05-14T03:18:00.850Z,100.00
2023-05-14T03:19:56.528Z,100.00
2023-05-14T03:21:52.315Z,100.00
2023-05-14T03:23:47.722Z,100.00
2023-05-14T03:25:42.733Z,100.00
2023-05-14T03:27:40.769Z,100.00
2023-05-14T03:29:35.959Z,100.00
2023-05-14T03:31:31.679Z,100.00
2023-05-14T03:33:26.709Z,100.00
2023-05-14T03:35:22.200Z,100.00
2023-05-14T03:37:17.174Z,100.00
2023-05-14T03:39:15.565Z,100.00
2023-05-14T03:41:10.687Z,100.00
2023-05-14T03:43:08.842Z,100.00
2023-05-14T03:45:03.899Z,100.00
2023-05-14T03:46:59.213Z,100.00
2023-05-14T03:48:54.266Z,100.00
2023-05-14T03:50:49.700Z,100.00
2023-05-14T03:52:44.755Z,100.00
2023-05-14T03:54:41.376Z,100.00
2023-05-14T03:56:36.475Z,100.00
2023-05-14T03:58:34.465Z,100.00
2023-05-14T04:00:29.503Z,100.00
2023-05-14T04:02:25.062Z,100.00
2023-05-14T04:04:20.332Z,100.00
2023-05-14T04:06:16.307Z,100.00
2023-05-14T04:08:11.414Z,100.00
2023-05-14T04:10:07.253Z,100.00
2023-05-14T04:12:02.304Z,100.00
2023-05-14T04:14:02.271Z,100.00
2023-05-14T04:15:57.316Z,100.00
2023-05-14T04:17:52.737Z,100.00
2023-05-14T04:19:47.913Z,100.00
2023-05-14T04:21:43.274Z,100.00
2023-05-14T04:23:38.219Z,100.00
2023-05-14T04:25:33.533Z,100.00
2023-05-14T04:27:28.560Z,100.00
2023-05-14T04:29:26.518Z,100.00
2023-05-14T04:31:21.589Z,100.00
2023-05-14T04:33:17.027Z,100.00
2023-05-14T04:35:13.024Z,100.00
2023-05-14T04:37:09.100Z,100.00
2023-05-14T04:39:04.159Z,100.00
2023-05-14T04:40:59.459Z,100.00
2023-05-14T04:46:14.687Z,100.00
2023-05-14T04:48:20.503Z,100.00
2023-05-14T04:51:12.600Z,100.00
2023-05-14T04:53:27.365Z,100.00
2023-05-14T04:55:22.744Z,100.00
2023-05-14T04:57:17.867Z,100.00
2023-05-14T04:59:19.638Z,100.00
2023-05-14T05:01:25.392Z,100.00
2023-05-14T05:03:23.021Z,100.00
2023-05-14T05:05:18.956Z,100.00
2023-05-14T05:07:14.717Z,100.00
2023-05-14T05:09:10.020Z,100.00
2023-05-14T05:11:05.349Z,100.00
2023-05-14T05:13:00.414Z,100.00
2023-05-14T05:14:55.835Z,100.00
2023-05-14T05:16:53.867Z,100.00
2023-05-14T05:18:49.343Z,100.00
2023-05-14T05:20:44.335Z,100.00
2023-05-14T05:22:39.959Z,100.00
2023-05-14T05:24:35.278Z,100.00
2023-05-14T05:26:31.830Z,100.00
2023-05-14T05:28:27.116Z,98.04
2023-05-14T05:30:24.662Z,96.90
2023-05-14T05:32:25.146Z,97.98
2023-05-14T05:34:20.914Z,98.09
2023-05-14T05:36:16.062Z,97.00
2023-05-14T05:38:11.446Z,95.44
2023-05-14T05:40:07.198Z,95.46
2023-05-14T05:42:02.798Z,93.83
2023-05-14T05:44:00.715Z,89.42
2023-05-14T05:45:56.034Z,88.94
2023-05-14T05:47:53.646Z,87.63
2023-05-14T05:49:49.176Z,87.96
2023-05-14T05:51:44.111Z,89.46
2023-05-14T05:53:39.558Z,88.43
2023-05-14T05:55:34.532Z,87.61
2023-05-14T05:57:29.987Z,87.47
2023-05-14T05:59:27.003Z,87.49
2023-05-14T06:01:22.655Z,86.64
2023-05-14T06:03:23.467Z,85.85
2023-05-14T06:05:21.657Z,86.05
2023-05-14T06:07:16.967Z,84.98
2023-05-14T06:09:13.328Z,85.62
2023-05-14T06:11:08.494Z,85.52
2023-05-14T06:13:03.830Z,84.31
2023-05-14T06:14:59.026Z,84.21
2023-05-14T06:16:54.466Z,84.20
2023-05-14T06:18:52.971Z,83.21
2023-05-14T06:20:48.437Z,82.57
2023-05-14T06:22:43.456Z,81.27
2023-05-14T06:24:38.770Z,81.28
2023-05-14T06:26:33.758Z,81.70
2023-05-14T06:28:29.105Z,81.38
2023-05-14T06:30:24.565Z,80.56
2023-05-14T06:32:20.150Z,80.76
2023-05-14T06:34:19.061Z,81.13
2023-05-14T06:36:19.353Z,82.35
2023-05-14T06:38:19.496Z,81.15
2023-05-14T06:40:18.809Z,79.97
2023-05-14T06:42:14.198Z,79.74
2023-05-14T06:44:09.571Z,78.97
2023-05-14T06:46:04.638Z,80.26
2023-05-14T06:50:46.889Z,80.07
2023-05-14T06:52:43.710Z,78.93
2023-05-14T06:54:39.510Z,79.22
2023-05-14T06:56:34.553Z,81.27
2023-05-14T06:58:29.832Z,81.38
2023-05-14T07:00:26.106Z,81.13
2023-05-14T07:02:22.271Z,80.85
2023-05-14T07:04:17.706Z,78.51
2023-05-14T07:06:17.622Z,79.21
2023-05-14T07:08:12.616Z,71.59
2023-05-14T07:10:09.922Z,70.97
2023-05-14T07:12:05.697Z,70.90
2023-05-14T07:14:03.224Z,71.05
2023-05-14T07:15:58.500Z,71.94
2023-05-14T07:17:54.014Z,75.79
2023-05-14T07:19:49.058Z,75.12
2023-05-14T07:21:47.074Z,74.55
2023-05-14T07:23:42.120Z,69.95
2023-05-14T07:25:37.479Z,71.68
2023-05-14T07:27:32.594Z,71.80
2023-05-14T07:29:30.225Z,68.28
2023-05-14T07:31:25.636Z,68.18
2023-05-14T07:33:21.448Z,65.54
2023-05-14T07:35:16.920Z,66.70
2023-05-14T07:37:16.511Z,66.25
2023-05-14T07:39:13.370Z,64.89
2023-05-14T07:41:08.735Z,63.81
2023-05-14T07:43:04.114Z,61.09
2023-05-14T07:44:59.491Z,62.01
2023-05-14T07:46:54.633Z,64.01
2023-05-14T07:48:52.826Z,62.03
2023-05-14T07:50:48.215Z,60.81
2023-05-14T07:52:46.168Z,58.92
2023-05-14T07:54:41.265Z,58.79
2023-05-14T07:56:36.672Z,60.06
2023-05-14T07:58:32.025Z,58.59
2023-05-14T08:00:27.544Z,59.63
2023-05-14T08:02:22.634Z,59.15
2023-05-14T08:04:18.330Z,59.69
2023-05-14T08:06:13.601Z,59.96
2023-05-14T08:08:12.599Z,57.57
2023-05-14T08:10:09.058Z,58.29
2023-05-14T08:12:04.472Z,58.54
2023-05-14T08:13:59.679Z,56.93
2023-05-14T08:15:55.964Z,55.66
2023-05-14T08:17:51.156Z,54.30
2023-05-14T08:19:46.976Z,54.27
2023-05-14T08:21:42.016Z,53.44
2023-05-14T08:23:39.896Z,53.31
2023-05-14T08:25:35.203Z,53.99
2023-05-14T08:27:30.948Z,53.20
2023-05-14T08:29:26.066Z,53.74
2023-05-14T08:31:21.421Z,54.14
2023-05-14T08:33:16.524Z,50.13
2023-05-14T08:35:12.573Z,49.39
2023-05-14T08:37:08.204Z,48.78
2023-05-14T08:39:07.820Z,49.89
2023-05-14T08:41:03.466Z,50.94
2023-05-14T08:42:59.942Z,50.63
2023-05-14T08:44:59.866Z,49.90
2023-05-14T08:46:56.659Z,49.42
2023-05-14T08:48:57.905Z,50.25
2023-05-14T08:50:53.541Z,50.76
2023-05-14T08:52:49.140Z,49.94
2023-05-14T08:54:49.613Z,50.66
2023-05-14T08:56:46.581Z,50.29
2023-05-14T08:58:41.908Z,49.66
2023-05-14T09:00:37.481Z,49.48
2023-05-14T09:02:34.218Z,49.27
2023-05-14T09:04:30.615Z,49.65
2023-05-14T09:06:27.356Z,48.76
2023-05-14T09:08:22.822Z,49.24
2023-05-14T09:10:22.338Z,48.03
2023-05-14T09:12:17.737Z,47.10
2023-05-14T09:14:13.150Z,47.26
2023-05-14T09:16:09.087Z,48.14
2023-05-14T09:18:04.652Z,46.04
2023-05-14T09:19:59.900Z,45.95
2023-05-14T09:21:55.277Z,45.06
2023-05-14T09:23:50.257Z,44.68
2023-05-14T09:25:50.632Z,44.88
2023-05-14T09:27:50.294Z,42.78
2023-05-14T09:29:45.745Z,42.91
2023-05-14T09:31:40.879Z,41.73
2023-05-14T09:33:36.983Z,41.42
2023-05-14T09:35:32.682Z,41.87
2023-05-14T09:37:28.416Z,42.72
2023-05-14T09:39:23.940Z,43.97
2023-05-14T09:41:23.205Z,43.87
2023-05-14T09:43:18.812Z,43.30
2023-05-14T09:45:14.837Z,42.36
2023-05-14T09:47:10.254Z,41.26
2023-05-14T09:49:05.696Z,43.04
2023-05-14T09:51:02.711Z,43.37
2023-05-14T09:52:58.851Z,43.48
2023-05-14T09:54:55.039Z,42.18
2023-05-14T09:56:55.480Z,41.09
2023-05-14T09:58:50.923Z,41.74
2023-05-14T10:00:48.664Z,41.89
2023-05-14T10:02:45.648Z,41.78
2023-05-14T10:04:44.053Z,41.51
2023-05-14T10:06:42.416Z,42.08
2023-05-14T10:08:39.307Z,42.75
2023-05-14T10:10:37.000Z,40.37
2023-05-14T10:12:37.151Z,40.09
2023-05-14T10:14:38.144Z,39.18
2023-05-14T10:16:37.988Z,40.34
2023-05-14T10:18:38.142Z,41.44
2023-05-14T10:20:34.221Z,40.81
2023-05-14T10:22:30.626Z,40.66
2023-05-14T10:24:27.541Z,40.70
2023-05-14T10:26:24.177Z,42.03
2023-05-14T10:28:22.249Z,41.14
2023-05-14T10:30:17.669Z,41.03
2023-05-14T10:32:13.505Z,39.53
2023-05-14T10:34:40.714Z,39.64
2023-05-14T10:36:36.692Z,40.21
2023-05-14T10:38:34.019Z,40.11
2023-05-14T10:40:30.868Z,39.52
2023-05-14T10:42:27.538Z,38.94
2023-05-14T10:44:28.723Z,39.61
2023-05-14T10:46:23.833Z,39.61
2023-05-14T10:48:19.790Z,40.25
2023-05-14T10:50:17.731Z,39.67
2023-05-14T10:52:15.033Z,40.06
2023-05-14T10:54:11.429Z,39.47
2023-05-14T10:56:08.593Z,39.68
2023-05-14T10:58:07.826Z,39.65
2023-05-14T11:00:07.726Z,38.65
2023-05-14T11:02:02.876Z,38.53
2023-05-14T11:04:01.466Z,39.21
2023-05-14T11:06:21.133Z,39.33
2023-05-14T11:08:39.174Z,38.59
2023-05-14T11:10:49.857Z,39.50
2023-05-14T11:12:53.031Z,39.75
2023-05-14T11:14:50.828Z,39.47
2023-05-14T11:19:52.886Z,39.22
2023-05-14T11:21:50.307Z,39.96
2023-05-14T11:23:45.298Z,39.35
2023-05-14T11:25:40.818Z,39.58
2023-05-14T11:27:37.778Z,39.78
2023-05-14T11:29:33.102Z,40.37
2023-05-14T11:31:28.799Z,40.07
2023-05-14T11:33:26.778Z,40.44
2023-05-14T11:35:27.721Z,40.76
2023-05-14T11:37:25.154Z,41.06
2023-05-14T11:41:42.844Z,42.97
2023-05-14T11:43:39.362Z,42.60
2023-05-14T11:45:36.538Z,42.25
2023-05-14T11:47:32.693Z,41.65
2023-05-14T11:49:32.007Z,41.61
2023-05-14T11:51:27.315Z,41.77
2023-05-14T11:53:29.583Z,42.03
2023-05-14T11:55:29.110Z,42.17
2023-05-14T11:57:50.042Z,42.27
2023-05-14T12:00:00.504Z,42.20
2023-05-14T12:01:59.296Z,42.63
2023-05-14T12:03:55.073Z,43.05
2023-05-14T12:06:02.347Z,43.03
2023-05-14T12:08:09.759Z,43.16
2023-05-14T12:10:20.721Z,42.87
2023-05-14T12:12:24.725Z,42.32
2023-05-14T12:14:22.581Z,42.80
2023-05-14T12:16:18.924Z,42.58
2023-05-14T12:18:23.893Z,43.03
2023-05-14T12:20:20.715Z,41.71
2023-05-14T12:24:41.361Z,42.53
2023-05-14T12:26:40.934Z,42.26
2023-05-14T12:28:38.788Z,41.65
2023-05-14T12:30:46.114Z,41.67
2023-05-14T12:32:50.388Z,40.71
2023-05-14T12:34:46.704Z,40.77
2023-05-14T12:36:43.904Z,40.78
2023-05-14T12:38:44.362Z,39.79
2023-05-14T12:40:40.515Z,39.48
2023-05-14T12:42:39.886Z,39.49
2023-05-14T12:44:39.914Z,39.10
2023-05-14T12:46:37.012Z,38.33
2023-05-14T12:48:32.207Z,37.96
2023-05-14T12:50:27.744Z,38.50
2023-05-14T12:52:36.714Z,37.61
2023-05-14T12:54:36.309Z,37.51
2023-05-14T12:56:32.199Z,37.35
2023-05-14T12:58:27.584Z,37.88
2023-05-14T13:00:23.308Z,37.66
2023-05-14T13:02:19.094Z,37.53
2023-05-14T13:04:33.579Z,37.33
2023-05-14T13:06:32.382Z,36.86
2023-05-14T13:08:30.249Z,37.50
2023-05-14T13:10:31.562Z,37.84
2023-05-14T13:12:27.429Z,37.62
2023-05-14T13:14:23.221Z,37.65
2023-05-14T13:16:18.443Z,37.66
2023-05-14T13:18:14.115Z,37.78
2023-05-14T13:20:10.843Z,37.87
2023-05-14T13:22:07.116Z,37.93
2023-05-14T13:24:02.992Z,37.97
2023-05-14T13:26:03.871Z,37.23
2023-05-14T13:28:04.598Z,36.93
2023-05-14T13:30:02.670Z,35.97
2023-05-14T13:32:02.264Z,36.21
2023-05-14T13:34:06.534Z,36.71
2023-05-14T13:36:01.846Z,36.76
2023-05-14T13:37:57.371Z,36.88
2023-05-14T13:39:52.476Z,37.27
2023-05-14T13:41:50.957Z,37.17
2023-05-14T13:43:46.113Z,37.37
2023-05-14T13:45:44.703Z,37.20
2023-05-14T13:47:44.902Z,38.01
2023-05-14T13:49:40.991Z,37.56
2023-05-14T13:52:05.737Z,37.40
2023-05-14T13:55:22.433Z,36.79
2023-05-14T13:57:59.974Z,37.30
2023-05-14T14:00:19.870Z,37.61
2023-05-14T14:02:41.762Z,36.84
2023-05-14T14:05:07.076Z,36.73
2023-05-14T14:07:10.389Z,36.56
2023-05-14T14:09:17.974Z,36.75
2023-05-14T14:11:39.459Z,37.08
2023-05-14T14:13:47.850Z,36.51
2023-05-14T14:15:43.827Z,36.32
2023-05-14T14:17:41.786Z,36.08
2023-05-14T14:19:37.092Z,36.73
2023-05-14T14:21:44.592Z,36.84
2023-05-14T14:23:43.023Z,36.21
2023-05-14T14:25:38.710Z,36.95
2023-05-14T14:27:36.253Z,36.80
2023-05-14T14:29:36.835Z,36.22
2023-05-14T14:31:32.268Z,36.58
2023-05-14T14:33:29.596Z,36.47
2023-05-14T14:35:26.677Z,35.91
2023-05-14T14:37:59.935Z,36.53
2023-05-14T14:40:05.955Z,36.19
2023-05-14T14:42:42.284Z,35.98
2023-05-14T14:45:28.783Z,35.65
2023-05-14T14:51:23.290Z,35.86
2023-05-14T14:53:24.716Z,35.70
2023-05-14T14:55:44.028Z,35.29
2023-05-14T14:59:05.793Z,35.21
2023-05-14T15:01:25.052Z,35.01
2023-05-14T15:03:30.537Z,34.30
2023-05-14T15:05:30.199Z,34.28
2023-05-14T15:07:32.244Z,34.32
2023-05-14T15:09:31.005Z,34.29
2023-05-14T15:11:26.263Z,35.36
2023-05-14T15:13:24.820Z,35.72
2023-05-14T15:15:21.234Z,34.67
2023-05-14T15:17:20.813Z,34.91
2023-05-14T15:19:31.612Z,34.51
2023-05-14T15:21:30.123Z,35.00
2023-05-14T15:23:35.752Z,34.32
2023-05-14T15:28:37.744Z,35.40
2023-05-14T15:31:36.496Z,36.06
2023-05-14T15:37:03.966Z,34.95
2023-05-14T15:39:05.960Z,35.38
2023-05-14T15:41:09.469Z,35.42
2023-05-14T15:43:05.707Z,35.87
2023-05-14T15:45:04.074Z,37.72
2023-05-14T15:47:12.594Z,38.08
2023-05-14T15:49:21.645Z,35.01
2023-05-14T15:51:20.139Z,34.70
2023-05-14T15:53:17.155Z,34.93
2023-05-14T15:55:15.969Z,35.47
2023-05-14T15:57:11.454Z,35.68
2023-05-14T15:59:07.201Z,35.25
2023-05-14T16:01:02.992Z,35.23
2023-05-14T16:02:58.897Z,35.60
2023-05-14T16:04:57.771Z,36.40
2023-05-14T16:06:54.455Z,36.44
2023-05-14T16:08:50.013Z,36.06
2023-05-14T16:10:54.551Z,35.91
2023-05-14T16:12:50.261Z,36.07
2023-05-14T16:15:00.405Z,36.63
2023-05-14T16:16:59.196Z,36.57
2023-05-14T16:18:54.969Z,36.12
2023-05-14T16:20:50.207Z,36.23
2023-05-14T16:22:52.917Z,35.46
2023-05-14T16:24:48.555Z,35.24
2023-05-14T16:26:47.326Z,35.77
2023-05-14T16:28:44.456Z,35.94
2023-05-14T16:30:42.707Z,35.64
2023-05-14T16:32:43.330Z,35.87
2023-05-14T16:34:54.124Z,35.84
2023-05-14T16:37:01.658Z,35.86
2023-05-14T16:39:07.335Z,36.02
2023-05-14T16:41:04.142Z,35.72
2023-05-14T16:43:02.357Z,35.05
2023-05-14T16:45:03.155Z,35.27
2023-05-14T16:47:04.743Z,34.12
2023-05-14T16:49:23.861Z,33.76
2023-05-14T16:51:26.702Z,33.26
2023-05-14T16:53:36.256Z,34.01
2023-05-14T16:55:31.620Z,34.62
2023-05-14T16:57:27.472Z,34.19
2023-05-14T17:02:21.580Z,33.71
2023-05-14T17:04:22.560Z,34.26
2023-05-14T17:06:18.340Z,34.09
2023-05-14T17:08:13.838Z,34.63
2023-05-14T17:10:10.529Z,34.93
2023-05-14T17:12:08.441Z,35.42
2023-05-14T17:14:06.304Z,35.64
2023-05-14T17:16:02.474Z,35.55
2023-05-14T17:18:00.947Z,36.12
2023-05-14T17:19:56.674Z,36.56
2023-05-14T17:21:51.809Z,36.41
2023-05-14T17:23:47.227Z,36.64
2023-05-14T17:25:42.520Z,36.74
2023-05-14T17:27:37.955Z,36.80
2023-05-14T17:29:36.075Z,36.83
2023-05-14T17:31:31.494Z,36.90
2023-05-14T17:33:29.259Z,36.84
2023-05-14T17:35:25.065Z,37.46
2023-05-14T17:37:20.469Z,36.93
2023-05-14T17:39:16.332Z,36.68
2023-05-14T17:41:11.441Z,36.58
2023-05-14T17:43:08.750Z,36.71
2023-05-14T17:45:03.929Z,36.85
2023-05-14T17:47:00.618Z,37.30
2023-05-14T17:48:58.486Z,37.41
2023-05-14T17:50:54.397Z,37.61
2023-05-14T17:52:54.009Z,37.30
2023-05-14T17:54:55.033Z,37.35
2023-05-14T17:56:51.235Z,37.48
2023-05-14T17:58:54.227Z,37.50
2023-05-14T18:04:16.761Z,37.48
2023-05-14T18:06:19.321Z,37.92
2023-05-14T18:08:30.221Z,37.84
2023-05-14T18:10:32.289Z,38.04
2023-05-14T18:12:41.880Z,38.33
2023-05-14T18:14:41.927Z,38.56
2023-05-14T18:17:46.902Z,38.50
2023-05-14T18:20:55.436Z,38.95
2023-05-14T18:22:52.604Z,39.62
2023-05-14T18:24:58.817Z,40.00
2023-05-14T18:27:20.220Z,40.43
2023-05-14T18:29:17.795Z,39.99
2023-05-14T18:31:13.117Z,40.45
2023-05-14T18:33:08.581Z,40.09
2023-05-14T18:35:05.670Z,40.52
2023-05-14T18:37:14.623Z,40.55
2023-05-14T18:39:11.853Z,41.03
2023-05-14T18:41:09.510Z,40.53
2023-05-14T18:43:05.240Z,40.33
2023-05-14T18:45:01.756Z,41.24
2023-05-14T18:46:59.547Z,40.79
2023-05-14T18:49:49.880Z,41.10
2023-05-14T18:52:14.289Z,41.41
2023-05-14T18:54:17.239Z,41.94
2023-05-14T18:56:13.161Z,41.94
2023-05-14T18:58:09.250Z,41.92
2023-05-14T19:00:05.460Z,42.34
2023-05-14T19:02:01.225Z,42.23
2023-05-14T19:04:00.220Z,42.37
2023-05-14T19:05:57.815Z,42.07
2023-05-14T19:07:54.950Z,42.44
2023-05-14T19:09:59.692Z,42.89
2023-05-14T19:12:07.437Z,43.03
2023-05-14T19:14:07.327Z,43.34
2023-05-14T19:16:03.397Z,43.26
2023-05-14T19:17:59.276Z,43.11
2023-05-14T19:19:54.888Z,43.45
2023-05-14T19:22:02.014Z,43.78
2023-05-14T19:26:00.628Z,43.40
2023-05-14T19:28:01.651Z,44.47
2023-05-14T19:30:01.388Z,44.86
2023-05-14T19:32:00.166Z,45.09
2023-05-14T19:33:57.969Z,45.10
2023-05-14T19:36:00.844Z,45.49
2023-05-14T19:38:14.825Z,45.80
2023-05-14T19:43:23.520Z,46.71
2023-05-14T19:45:52.960Z,46.77
2023-05-14T19:47:48.700Z,47.41
2023-05-14T19:49:44.692Z,47.54
2023-05-14T19:51:41.283Z,47.34
2023-05-14T19:53:37.130Z,47.98
2023-05-14T19:55:32.826Z,47.97
2023-05-14T19:57:51.664Z,48.49
2023-05-14T20:02:54.066Z,49.36
2023-05-14T20:04:58.572Z,49.03
2023-05-14T20:07:03.406Z,48.79
2023-05-14T20:09:42.517Z,49.56
2023-05-14T20:15:11.242Z,49.82
2023-05-14T20:17:09.204Z,50.67
2023-05-14T20:19:21.448Z,50.23
2023-05-14T20:21:18.404Z,50.39
2023-05-14T20:23:14.025Z,50.65
2023-05-14T20:25:10.420Z,50.91
2023-05-14T20:27:05.963Z,49.93
2023-05-14T20:29:01.785Z,49.76
2023-05-14T20:30:59.113Z,49.96
2023-05-14T20:32:56.880Z,51.04
2023-05-14T20:35:02.886Z,50.92
2023-05-14T20:36:58.472Z,51.19
2023-05-14T20:38:56.187Z,51.33
2023-05-14T20:40:52.180Z,52.00
2023-05-14T20:42:47.536Z,51.33
2023-05-14T20:44:43.170Z,51.23
2023-05-14T20:46:38.831Z,52.03
2023-05-14T20:48:34.411Z,52.62
2023-05-14T20:50:32.399Z,52.43
2023-05-14T20:52:27.907Z,52.74
2023-05-14T20:54:22.903Z,53.23
2023-05-14T20:56:18.391Z,54.34
2023-05-14T20:58:13.563Z,53.34
2023-05-14T21:00:10.565Z,53.95
2023-05-14T21:02:06.221Z,54.04
2023-05-14T21:04:01.953Z,54.68
2023-05-14T21:06:00.731Z,54.67
2023-05-14T21:07:56.107Z,55.01
2023-05-14T21:09:52.738Z,54.58
2023-05-14T21:11:48.458Z,55.58
2023-05-14T21:13:43.932Z,55.44
2023-05-14T21:15:39.986Z,55.56
2023-05-14T21:17:35.444Z,55.35
2023-05-14T21:19:31.131Z,55.46
2023-05-14T21:21:30.331Z,56.68
2023-05-14T21:23:26.054Z,57.51
2023-05-14T21:25:21.038Z,58.22
2023-05-14T21:27:16.532Z,59.78
2023-05-14T21:29:11.577Z,60.27
2023-05-14T21:31:07.002Z,61.11
2023-05-14T21:33:02.053Z,61.57
2023-05-14T21:34:57.517Z,62.00
2023-05-14T21:36:55.399Z,62.27
2023-05-14T21:38:50.791Z,62.30
2023-05-14T21:40:45.884Z,63.29
2023-05-14T21:42:44.593Z,63.91
2023-05-14T21:45:03.808Z,64.47
2023-05-14T21:46:59.293Z,65.20
2023-05-14T21:48:54.584Z,66.26
2023-05-14T21:50:50.031Z,65.93
2023-05-14T21:52:47.748Z,66.00
2023-05-14T21:54:43.131Z,66.60
2023-05-14T21:56:38.740Z,67.19
2023-05-14T21:58:34.311Z,67.49
2023-05-14T22:00:29.413Z,68.24
2023-05-14T22:02:25.031Z,68.49
2023-05-14T22:04:20.186Z,68.68
2023-05-14T22:06:15.685Z,69.09
2023-05-14T22:08:13.640Z,69.73
2023-05-14T22:10:09.906Z,70.31
2023-05-14T22:12:05.127Z,70.77
2023-05-14T22:14:00.471Z,71.16
2023-05-14T22:16:05.229Z,72.66
2023-05-14T22:18:08.094Z,74.43
2023-05-14T22:20:03.536Z,75.59
2023-05-14T22:21:59.029Z,75.50
2023-05-14T22:23:57.020Z,75.72
2023-05-14T22:25:52.886Z,75.30
2023-05-14T22:27:48.286Z,75.87
2023-05-14T22:29:43.959Z,76.14
2023-05-14T22:31:39.532Z,76.29
2023-05-14T22:33:35.985Z,75.82
2023-05-14T22:35:31.453Z,76.48
2023-05-14T22:37:27.171Z,75.17
2023-05-14T22:39:25.178Z,75.17
2023-05-14T22:41:22.036Z,75.86
2023-05-14T22:43:17.400Z,75.51
2023-05-14T22:45:13.552Z,73.65
2023-05-14T22:47:09.098Z,73.01
2023-05-14T22:49:04.768Z,73.55
2023-05-14T22:51:00.202Z,72.35
2023-05-14T22:52:55.831Z,73.45
2023-05-14T22:54:53.873Z,75.15
2023-05-14T22:56:49.660Z,76.19
2023-05-14T22:58:44.994Z,77.52
2023-05-14T23:00:40.496Z,76.37
2023-05-14T23:02:35.980Z,78.09
2023-05-14T23:04:31.535Z,78.73
2023-05-14T23:06:28.143Z,79.29
2023-05-14T23:08:23.064Z,79.80
2023-05-14T23:10:21.292Z,80.45
2023-05-14T23:12:16.352Z,82.43
2023-05-14T23:14:15.413Z,81.83
2023-05-14T23:16:11.257Z,81.65
2023-05-14T23:18:06.917Z,82.16
2023-05-14T23:20:01.956Z,82.46
2023-05-14T23:21:58.356Z,81.76
2023-05-14T23:23:53.383Z,81.96
2023-05-14T23:25:51.662Z,82.40
2023-05-14T23:27:46.689Z,81.94
2023-05-14T23:29:42.075Z,82.41
2023-05-14T23:31:37.079Z,82.90
2023-05-14T23:33:30.049Z,83.70
2023-05-14T23:35:25.337Z,84.36
2023-05-14T23:37:21.144Z,84.98
2023-05-14T23:39:16.415Z,85.64
2023-05-14T23:41:14.430Z,85.56
2023-05-14T23:43:09.394Z,85.13
2023-05-14T23:45:05.382Z,85.61
2023-05-14T23:47:00.775Z,85.55
2023-05-14T23:48:57.208Z,84.95
2023-05-14T23:50:52.227Z,86.05
2023-05-14T23:52:47.603Z,88.41
2023-05-14T23:54:42.595Z,88.15
2023-05-14T23:56:40.634Z,88.45
2023-05-14T23:58:35.667Z,86.41
